Terminal Aerodrome Forecast
Issued by NWS Twin Cities, MN

Home | Current Version | Previous Version | Graphics & Text | Print | Product List | Glossary On
Versions: 1 2 3 4 5 6 7 8 9 10 11 12 13 14 15
658
FTUS43 KMPX 230520
TAFEAU
TAF
KEAU 230520Z 2306/2406 18006KT P6SM BKN200
     FM231200 21006KT P6SM VCSH BKN080
     FM231600 23006KT P6SM BKN120
     FM231800 26007KT P6SM BKN150
     FM240000 31010KT P6SM VCSH BKN050
     FM240300 31010KT 6SM -RA BKN035=

USA.gov is the U.S. government's official web portal to all federal, state and local government web resources and services.